Time;durP1;ratioP1;P1;durP2;ratioP2;P2;SDS_P1;SDS_P2;PMS_P1;PMS_P2;Temp;Humidity;BMP_temperature;BMP_pressure;BME280_temperature;BME280_humidity;BME280_pressure;Samples;Min_cycle;Max_cycle;Signal;HPM_P1;HPM_P2
2023/03/24 00:02:12;;;;;;;16.33;8.83;;;;;;;6.56;nan;-24000.03;5010583;28;20176;-76
2023/03/24 00:04:41;;;;;;;17.17;7.73;;;;;;;6.07;nan;-23986.41;5011580;28;20172;-74
2023/03/24 00:07:07;;;;;;;19.27;9.20;;;;;;;6.32;nan;-23993.22;5010337;28;20187;-73
2023/03/24 00:09:32;;;;;;;11.90;6.60;;;;;;;6.22;nan;-23990.53;5011048;28;20179;-74
2023/03/24 00:11:58;;;;;;;17.37;8.23;;;;;;;5.99;nan;-23984.00;5011457;28;20700;-74
2023/03/24 00:14:24;;;;;;;15.57;8.60;;;;;;;6.31;nan;-23993.09;5015147;28;20317;-73
2023/03/24 00:16:51;;;;;;;14.47;7.53;;;;;;;6.26;nan;-23991.66;5015896;28;20200;-75
2023/03/24 00:19:18;;;;;;;14.60;7.93;;;;;;;6.26;nan;-23991.53;5014662;28;20180;-75
2023/03/24 00:21:44;;;;;;;16.63;8.20;;;;;;;6.18;nan;-23989.53;5030849;28;20176;-74
2023/03/24 00:24:11;;;;;;;16.23;8.73;;;;;;;6.01;nan;-23984.69;5014239;28;20198;-74
2023/03/24 00:26:38;;;;;;;15.53;8.27;;;;;;;5.96;nan;-23983.13;5014269;28;20236;-75
2023/03/24 00:29:07;;;;;;;14.10;7.50;;;;;;;5.82;nan;-23979.31;5030701;28;20188;-74
2023/03/24 00:31:38;;;;;;;12.57;7.73;;;;;;;6.07;nan;-23986.41;5015546;28;20210;-74
2023/03/24 00:34:06;;;;;;;17.30;8.27;;;;;;;5.99;nan;-23984.00;5014272;28;20184;-74
2023/03/24 00:36:32;;;;;;;11.53;7.33;;;;;;;5.62;nan;-23973.75;5014172;28;20207;-75
2023/03/24 00:38:57;;;;;;;15.63;8.87;;;;;;;5.82;nan;-23979.16;5015014;28;20571;-74
2023/03/24 00:41:25;;;;;;;13.60;7.97;;;;;;;5.89;nan;-23981.28;5017120;28;20203;-77
2023/03/24 00:43:55;;;;;;;13.77;8.03;;;;;;;5.60;nan;-23973.19;5015221;28;20180;-74
2023/03/24 00:46:26;;;;;;;16.87;8.77;;;;;;;5.95;nan;-23982.84;5015338;28;20184;-73
2023/03/24 00:49:01;;;;;;;13.87;7.77;;;;;;;5.98;nan;-23983.72;5014041;28;20172;-74
2023/03/24 00:51:34;;;;;;;14.63;7.27;;;;;;;5.91;nan;-23981.72;5014990;28;20249;-74
2023/03/24 00:54:00;;;;;;;15.03;8.53;;;;;;;5.62;nan;-23973.75;5017349;28;20211;-75
2023/03/24 00:56:28;;;;;;;12.83;8.00;;;;;;;5.75;nan;-23977.31;5015235;28;20674;-74
2023/03/24 00:58:56;;;;;;;13.80;8.70;;;;;;;5.76;nan;-23977.75;5015177;28;20329;-74
2023/03/24 01:01:28;;;;;;;13.50;8.07;;;;;;;5.89;nan;-23981.16;5015109;28;20639;-74
2023/03/24 01:03:55;;;;;;;13.97;8.17;;;;;;;5.96;nan;-23983.28;5014974;28;20170;-74
2023/03/24 01:06:22;;;;;;;16.37;7.77;;;;;;;6.03;nan;-23985.28;5014811;28;20182;-75
2023/03/24 01:08:49;;;;;;;19.43;8.47;;;;;;;5.46;nan;-23969.06;5015168;28;20183;-74
2023/03/24 01:11:15;;;;;;;19.13;8.90;;;;;;;5.54;nan;-23971.34;5014806;28;20180;-74
2023/03/24 01:13:41;;;;;;;16.47;7.60;;;;;;;5.29;nan;-23964.38;5015055;28;20204;-75
2023/03/24 01:16:07;;;;;;;13.77;8.33;;;;;;;5.44;nan;-23968.50;5013495;28;20206;-74
2023/03/24 01:18:33;;;;;;;15.33;8.10;;;;;;;5.49;nan;-23969.91;5014283;28;20219;-74
2023/03/24 01:21:00;;;;;;;14.53;8.00;;;;;;;5.41;nan;-23967.66;5014595;28;20172;-75
2023/03/24 01:23:26;;;;;;;11.77;7.50;;;;;;;5.34;nan;-23965.94;5012995;28;20274;-75
2023/03/24 01:25:53;;;;;;;21.63;7.47;;;;;;;5.17;nan;-23961.09;5014143;28;20203;-74
2023/03/24 01:28:23;;;;;;;14.07;8.10;;;;;;;5.48;nan;-23969.63;5014737;28;20684;-74
2023/03/24 01:30:52;;;;;;;16.50;8.57;;;;;;;5.25;nan;-23963.38;5014792;28;20161;-74
2023/03/24 01:33:18;;;;;;;14.90;9.20;;;;;;;5.45;nan;-23968.78;5014249;28;20218;-76
2023/03/24 01:35:43;;;;;;;13.07;8.17;;;;;;;5.33;nan;-23965.66;5014615;28;20206;-74
2023/03/24 01:38:11;;;;;;;11.67;7.70;;;;;;;5.37;nan;-23966.50;5012947;28;20636;-74
2023/03/24 01:40:40;;;;;;;13.23;6.83;;;;;;;5.18;nan;-23961.38;5013081;28;20176;-74
2023/03/24 01:43:06;;;;;;;17.40;8.40;;;;;;;4.84;nan;-23951.84;5014286;28;20704;-75
2023/03/24 01:45:40;;;;;;;12.30;7.57;;;;;;;5.25;nan;-23963.25;5013797;28;20168;-75
2023/03/24 01:48:08;;;;;;;12.53;6.73;;;;;;;5.22;nan;-23962.38;5012667;28;20179;-75
2023/03/24 01:50:34;;;;;;;11.27;6.57;;;;;;;5.14;nan;-23960.25;5013674;28;20180;-74
2023/03/24 01:53:00;;;;;;;11.53;7.10;;;;;;;5.15;nan;-23960.41;5032073;28;20188;-73
2023/03/24 01:55:27;;;;;;;10.83;7.17;;;;;;;5.41;nan;-23967.66;5013825;28;20198;-74
2023/03/24 01:57:57;;;;;;;15.80;7.87;;;;;;;5.30;nan;-23964.66;5013918;28;20232;-75
2023/03/24 02:00:22;;;;;;;10.37;6.47;;;;;;;5.10;nan;-23958.97;5013747;28;20204;-74
2023/03/24 02:02:57;;;;;;;14.40;7.73;;;;;;;5.12;nan;-23959.69;5014283;28;20230;-74
2023/03/24 02:05:28;;;;;;;11.03;6.93;;;;;;;5.09;nan;-23958.81;5014203;28;20171;-74
2023/03/24 02:08:02;;;;;;;12.33;7.33;;;;;;;5.10;nan;-23959.13;5012474;28;20255;-74
2023/03/24 02:10:32;;;;;;;12.13;6.83;;;;;;;4.53;nan;-23942.91;5013429;28;20239;-74
2023/03/24 02:12:57;;;;;;;16.70;7.77;;;;;;;4.87;nan;-23952.72;5028703;28;20633;-75
2023/03/24 02:15:26;;;;;;;13.77;7.50;;;;;;;4.95;nan;-23954.84;5028710;28;20184;-74
2023/03/24 02:18:24;;;;;;;13.50;7.17;;;;;;;4.82;nan;-23951.16;5012300;28;20236;-75
2023/03/24 02:21:18;;;;;;;11.53;7.00;;;;;;;4.66;nan;-23946.59;5011895;28;20594;-75
2023/03/24 02:24:02;;;;;;;13.67;6.70;;;;;;;4.58;nan;-23944.31;5013301;28;20168;-74
2023/03/24 02:26:56;;;;;;;10.40;6.23;;;;;;;4.18;nan;-23933.22;5013966;28;20168;-74
2023/03/24 02:29:41;;;;;;;9.40;5.80;;;;;;;4.56;nan;-23943.88;5011860;28;20596;-74
2023/03/24 02:32:28;;;;;;;10.17;6.27;;;;;;;4.44;nan;-23940.63;5016022;28;20203;-75
2023/03/24 02:35:30;;;;;;;11.10;7.17;;;;;;;4.38;nan;-23938.75;5013347;28;20195;-75
2023/03/24 02:38:23;;;;;;;12.67;6.17;;;;;;;4.28;nan;-23936.06;4992910;28;20755;-74
2023/03/24 02:41:15;;;;;;;11.47;6.40;;;;;;;3.89;nan;-23924.94;4992017;28;20284;-75
2023/03/24 02:44:00;;;;;;;14.63;7.53;;;;;;;4.26;nan;-23935.34;4993281;28;20649;-74
2023/03/24 02:46:45;;;;;;;14.63;8.10;;;;;;;4.32;nan;-23937.06;4992902;28;20325;-74
2023/03/24 02:49:21;;;;;;;11.03;5.73;;;;;;;4.33;nan;-23937.47;4991762;28;20179;-75
2023/03/24 02:52:04;;;;;;;9.77;6.50;;;;;;;4.09;nan;-23930.50;4991912;28;20176;-75
2023/03/24 02:54:35;;;;;;;10.30;7.20;;;;;;;4.42;nan;-23939.91;4995219;28;20176;-75
2023/03/24 02:57:21;;;;;;;15.60;8.33;;;;;;;4.40;nan;-23939.47;4991412;28;20208;-74
2023/03/24 02:59:58;;;;;;;11.80;6.30;;;;;;;4.19;nan;-23933.50;4993144;28;20180;-75
2023/03/24 03:02:31;;;;;;;13.37;6.63;;;;;;;4.22;nan;-23934.22;4992936;28;20181;-74
2023/03/24 03:05:06;;;;;;;9.73;5.97;;;;;;;4.19;nan;-23933.50;4992753;28;20648;-77
2023/03/24 03:07:36;;;;;;;10.47;6.27;;;;;;;4.09;nan;-23930.66;4990028;28;20610;-76
2023/03/24 03:10:14;;;;;;;9.23;6.27;;;;;;;4.00;nan;-23928.09;4993124;28;20173;-75
2023/03/24 03:12:43;;;;;;;12.10;6.70;;;;;;;4.07;nan;-23929.94;4991474;28;20283;-73
2023/03/24 03:15:17;;;;;;;17.00;7.10;;;;;;;4.07;nan;-23929.94;4991416;28;20196;-73
2023/03/24 03:18:18;;;;;;;12.20;6.97;;;;;;;4.16;nan;-23932.50;4992774;28;20575;-75
2023/03/24 03:20:51;;;;;;;8.73;4.90;;;;;;;4.02;nan;-23928.66;4991371;28;20560;-73
2023/03/24 03:23:28;;;;;;;8.63;6.40;;;;;;;3.98;nan;-23927.66;4991260;28;20284;-73
2023/03/24 03:26:04;;;;;;;12.87;7.17;;;;;;;4.08;nan;-23930.38;4991482;28;20184;-75
2023/03/24 03:28:32;;;;;;;8.83;5.60;;;;;;;4.06;nan;-23929.66;4993109;28;20530;-74
2023/03/24 03:31:05;;;;;;;8.53;5.63;;;;;;;4.11;nan;-23931.06;4992738;28;20239;-74
2023/03/24 03:33:58;;;;;;;12.60;6.33;;;;;;;4.14;nan;-23931.94;4992555;28;20262;-74
2023/03/24 03:36:33;;;;;;;8.83;5.97;;;;;;;3.66;nan;-23918.53;4992398;28;20181;-74
2023/03/24 03:39:09;;;;;;;8.90;4.70;;;;;;;3.87;nan;-23924.38;4992728;28;20168;-75
2023/03/24 03:41:37;;;;;;;11.13;6.17;;;;;;;3.88;nan;-23924.66;5007859;28;20180;-75
2023/03/24 03:44:02;;;;;;;11.03;5.43;;;;;;;3.96;nan;-23926.94;5007382;28;20181;-75
2023/03/24 03:46:27;;;;;;;12.80;5.50;;;;;;;4.01;nan;-23928.38;4991909;28;20547;-74
2023/03/24 03:48:53;;;;;;;9.80;5.67;;;;;;;4.04;nan;-23929.09;4991938;28;20190;-74
2023/03/24 03:51:18;;;;;;;9.67;5.83;;;;;;;3.98;nan;-23927.66;4992558;28;20184;-75
2023/03/24 03:53:49;;;;;;;9.37;5.43;;;;;;;4.15;nan;-23932.22;4993084;28;20561;-73
2023/03/24 03:56:18;;;;;;;9.60;6.07;;;;;;;4.13;nan;-23931.66;4993092;28;20173;-75
2023/03/24 03:58:46;;;;;;;9.57;5.07;;;;;;;4.15;nan;-23932.34;4991896;28;20236;-75
2023/03/24 04:01:14;;;;;;;12.47;5.80;;;;;;;4.16;nan;-23932.63;4990668;28;20199;-75
2023/03/24 04:03:52;;;;;;;11.67;5.57;;;;;;;4.27;nan;-23935.63;4992402;28;20177;-74
2023/03/24 04:06:52;;;;;;;9.00;5.90;;;;;;;4.47;nan;-23941.19;4992018;28;20175;-75
2023/03/24 04:09:35;;;;;;;10.10;5.00;;;;;;;4.58;nan;-23944.31;5001032;28;20188;-74
2023/03/24 04:12:38;;;;;;;7.43;5.17;;;;;;;4.58;nan;-23944.47;4992012;28;20252;-74
2023/03/24 04:15:21;;;;;;;5.67;3.83;;;;;;;4.63;nan;-23945.75;4992246;28;20229;-75
2023/03/24 04:17:53;;;;;;;5.80;4.60;;;;;;;4.50;nan;-23942.03;5007023;28;20308;-74
2023/03/24 04:20:25;;;;;;;7.63;4.53;;;;;;;4.52;nan;-23942.59;4993341;28;20233;-75
2023/03/24 04:23:13;;;;;;;6.10;4.37;;;;;;;4.47;nan;-23941.31;4997719;28;20190;-76
2023/03/24 04:25:43;;;;;;;9.33;5.03;;;;;;;4.47;nan;-23941.31;5012486;28;20271;-75
2023/03/24 04:28:36;;;;;;;8.30;4.57;;;;;;;4.29;nan;-23936.34;4997995;28;20184;-75
2023/03/24 04:31:22;;;;;;;8.90;5.13;;;;;;;4.39;nan;-23939.06;5012274;28;20188;-74
2023/03/24 04:33:57;;;;;;;10.03;5.27;;;;;;;4.35;nan;-23938.06;4996697;28;20181;-75
2023/03/24 04:36:28;;;;;;;9.00;5.53;;;;;;;4.25;nan;-23935.22;4998457;28;20589;-74
2023/03/24 04:38:56;;;;;;;6.37;5.53;;;;;;;4.24;nan;-23934.78;5001728;28;20204;-75
2023/03/24 04:41:24;;;;;;;10.33;5.77;;;;;;;4.30;nan;-23936.50;5011618;28;20312;-73
2023/03/24 04:43:53;;;;;;;7.17;4.80;;;;;;;4.32;nan;-23937.19;5000812;28;20196;-76
2023/03/24 04:46:20;;;;;;;5.67;4.40;;;;;;;4.29;nan;-23936.34;5022702;28;20184;-75
2023/03/24 04:48:49;;;;;;;10.10;5.90;;;;;;;4.10;nan;-23930.94;5005029;28;20190;-75
2023/03/24 04:51:17;;;;;;;6.07;4.20;;;;;;;4.23;nan;-23934.50;5004649;28;20185;-76
2023/03/24 04:53:43;;;;;;;8.37;5.07;;;;;;;4.37;nan;-23938.63;5001007;28;20186;-75
2023/03/24 04:56:17;;;;;;;8.40;5.77;;;;;;;4.58;nan;-23944.47;4998896;28;21280;-75
2023/03/24 04:58:42;;;;;;;7.10;5.43;;;;;;;4.53;nan;-23942.91;4997288;28;20226;-75
2023/03/24 05:01:08;;;;;;;9.17;5.30;;;;;;;4.44;nan;-23940.47;5016268;28;20702;-76
2023/03/24 05:03:36;;;;;;;9.37;6.00;;;;;;;4.86;nan;-23952.28;5001652;28;20195;-73
2023/03/24 05:06:04;;;;;;;7.50;4.87;;;;;;;4.88;nan;-23952.84;5016001;28;20742;-74
2023/03/24 05:08:31;;;;;;;10.07;6.27;;;;;;;5.13;nan;-23959.81;5000307;28;20620;-74
2023/03/24 05:10:57;;;;;;;11.03;5.20;;;;;;;5.36;nan;-23966.38;5000757;28;20180;-74
2023/03/24 05:13:22;;;;;;;9.23;5.13;;;;;;;5.55;nan;-23971.63;5000856;28;20175;-73
2023/03/24 05:15:48;;;;;;;11.90;5.53;;;;;;;5.41;nan;-23967.66;5000481;28;20526;-73
2023/03/24 05:18:13;;;;;;;11.90;6.10;;;;;;;5.81;nan;-23979.00;5000919;28;20207;-74
2023/03/24 05:20:38;;;;;;;11.87;6.67;;;;;;;5.99;nan;-23984.00;4999879;28;20196;-72
2023/03/24 05:23:04;;;;;;;9.57;5.63;;;;;;;6.15;nan;-23988.69;4999113;28;20247;-75
2023/03/24 05:25:30;;;;;;;9.50;6.07;;;;;;;6.11;nan;-23987.41;4999074;28;20195;-73
2023/03/24 05:27:55;;;;;;;12.33;6.27;;;;;;;6.12;nan;-23987.69;5004326;28;20180;-73
2023/03/24 05:30:21;;;;;;;8.77;5.60;;;;;;;6.24;nan;-23991.09;5000662;28;20180;-73
2023/03/24 05:32:46;;;;;;;7.10;5.73;;;;;;;6.84;nan;-24008.00;5001646;28;20191;-75
2023/03/24 05:35:12;;;;;;;10.43;6.07;;;;;;;6.83;nan;-24007.56;5013581;28;20172;-74
2023/03/24 05:37:37;;;;;;;11.43;5.97;;;;;;;6.40;nan;-23995.63;5009768;28;20207;-75
2023/03/24 05:40:03;;;;;;;13.20;5.30;;;;;;;6.99;nan;-24012.09;5006092;28;20564;-74
2023/03/24 05:42:28;;;;;;;13.50;6.57;;;;;;;6.69;nan;-24003.72;5012200;28;20279;-75
2023/03/24 05:44:54;;;;;;;8.27;5.83;;;;;;;6.83;nan;-24007.56;5028829;28;20188;-73
2023/03/24 05:47:19;;;;;;;8.90;4.87;;;;;;;7.05;nan;-24013.94;5013851;28;20198;-76
2023/03/24 05:49:45;;;;;;;9.07;5.50;;;;;;;7.26;nan;-24019.75;5007196;28;20223;-75
2023/03/24 05:52:14;;;;;;;7.77;4.93;;;;;;;7.62;nan;-24029.81;5010677;28;20188;-74
2023/03/24 05:54:39;;;;;;;10.73;5.67;;;;;;;7.36;nan;-24022.44;5014617;28;20188;-74
2023/03/24 05:57:09;;;;;;;8.17;5.27;;;;;;;7.68;nan;-24031.53;5013208;28;20283;-74
2023/03/24 05:59:34;;;;;;;9.67;6.17;;;;;;;8.02;nan;-24040.88;5013928;28;20224;-75
2023/03/24 06:02:00;;;;;;;12.33;6.80;;;;;;;7.53;nan;-24027.28;5012355;28;20203;-75
2023/03/24 06:04:30;;;;;;;15.00;8.10;;;;;;;7.84;nan;-24036.06;5012223;28;20183;-75
2023/03/24 06:06:57;;;;;;;8.03;5.03;;;;;;;7.95;nan;-24039.16;5012676;28;20622;-74
2023/03/24 06:09:34;;;;;;;12.03;7.30;;;;;;;8.02;nan;-24040.88;5028933;28;20172;-76
2023/03/24 06:12:01;;;;;;;11.10;6.07;;;;;;;8.45;nan;-24053.06;5012878;28;20263;-76
2023/03/24 06:14:26;;;;;;;16.20;6.03;;;;;;;8.60;nan;-24057.16;5012062;28;20674;-75
2023/03/24 06:16:52;;;;;;;13.10;6.13;;;;;;;8.72;nan;-24060.69;5012967;28;20200;-73
2023/03/24 06:19:21;;;;;;;11.90;6.10;;;;;;;8.78;nan;-24062.38;5012572;28;20266;-75
2023/03/24 06:21:49;;;;;;;11.20;6.10;;;;;;;8.85;nan;-24064.38;5013576;28;20268;-75
2023/03/24 06:24:15;;;;;;;10.23;5.57;;;;;;;8.71;nan;-24060.41;5014006;28;20222;-76
2023/03/24 06:26:43;;;;;;;10.97;5.83;;;;;;;8.79;nan;-24062.53;5013126;28;20183;-75
2023/03/24 06:29:09;;;;;;;11.60;6.90;;;;;;;9.16;nan;-24072.84;5012005;28;20184;-75
2023/03/24 06:31:36;;;;;;;11.77;5.33;;;;;;;9.35;nan;-24078.22;5013671;28;20263;-76
2023/03/24 06:34:02;;;;;;;7.90;5.30;;;;;;;9.38;nan;-24079.06;5012045;28;20176;-76
2023/03/24 06:36:28;;;;;;;9.83;6.23;;;;;;;9.50;nan;-24082.31;5012350;28;20194;-75
2023/03/24 06:38:53;;;;;;;10.32;6.05;;;;;;;9.76;nan;-24089.81;5014318;28;20560;-73
2023/03/24 06:41:20;;;;;;;10.80;5.85;;;;;;;9.90;nan;-24093.63;5013090;28;20172;-77
2023/03/24 06:43:45;;;;;;;8.40;5.32;;;;;;;9.72;nan;-24088.53;5013559;28;20184;-75
2023/03/24 06:46:11;;;;;;;10.45;5.88;;;;;;;10.29;nan;-24104.50;5013519;28;20168;-74
2023/03/24 06:48:37;;;;;;;10.52;5.80;;;;;;;10.11;nan;-24099.41;5013628;28;20168;-74
2023/03/24 06:51:03;;;;;;;13.05;6.22;;;;;;;10.15;nan;-24100.69;5012190;28;20231;-76
2023/03/24 06:53:28;;;;;;;8.55;5.13;;;;;;;10.04;nan;-24097.44;5013242;28;20234;-76
2023/03/24 06:55:53;;;;;;;13.70;5.88;;;;;;;10.07;nan;-24098.28;5013803;28;20184;-74
2023/03/24 06:58:19;;;;;;;12.13;5.97;;;;;;;10.36;nan;-24106.47;5012923;28;20239;-77
2023/03/24 07:00:45;;;;;;;9.30;5.10;;;;;;;10.63;nan;-24113.97;5013022;28;20255;-77
2023/03/24 07:03:12;;;;;;;10.15;6.03;;;;;;;10.82;nan;-24119.31;5014728;28;20172;-76
2023/03/24 07:05:43;;;;;;;11.90;5.43;;;;;;;11.05;nan;-24125.66;5013017;28;20190;-74
2023/03/24 07:08:10;;;;;;;9.13;5.57;;;;;;;10.84;nan;-24119.88;5012854;28;20180;-75
2023/03/24 07:10:38;;;;;;;8.52;4.78;;;;;;;11.26;nan;-24131.44;5012732;28;20169;-76
2023/03/24 07:13:04;;;;;;;10.63;5.22;;;;;;;11.17;nan;-24128.91;5013057;28;20172;-75
2023/03/24 07:15:30;;;;;;;13.40;5.38;;;;;;;11.23;nan;-24130.59;5012730;28;20180;-76
2023/03/24 07:17:55;;;;;;;11.82;4.80;;;;;;;11.16;nan;-24128.63;5012540;28;20250;-75
2023/03/24 07:20:21;;;;;;;9.82;5.03;;;;;;;11.59;nan;-24140.59;5011692;28;20278;-75
2023/03/24 07:22:47;;;;;;;6.72;4.20;;;;;;;11.62;nan;-24141.59;5011719;28;20314;-75
2023/03/24 07:25:13;;;;;;;5.10;3.83;;;;;;;11.81;nan;-24146.81;5012742;28;20180;-75
2023/03/24 07:27:39;;;;;;;7.90;4.72;;;;;;;12.13;nan;-24155.81;5011892;28;20681;-75
2023/03/24 07:30:05;;;;;;;11.00;5.40;;;;;;;12.07;nan;-24154.13;5012692;28;20267;-75
2023/03/24 07:32:37;;;;;;;13.43;5.13;;;;;;;12.52;nan;-24166.66;5012880;28;20190;-75
2023/03/24 07:35:06;;;;;;;9.95;5.07;;;;;;;12.49;nan;-24165.81;5012850;28;20164;-76
2023/03/24 07:37:32;;;;;;;10.60;5.50;;;;;;;12.54;nan;-24167.06;5011170;28;20196;-76
2023/03/24 07:39:57;;;;;;;8.82;5.22;;;;;;;12.08;nan;-24154.25;5012450;28;20267;-73
2023/03/24 07:42:24;;;;;;;12.10;6.07;;;;;;;12.44;nan;-24164.25;5012890;28;20168;-77
2023/03/24 07:44:50;;;;;;;9.40;5.20;;;;;;;12.50;nan;-24165.94;5012107;28;20190;-75
2023/03/24 07:47:16;;;;;;;11.18;5.38;;;;;;;12.66;nan;-24170.59;5011175;28;20659;-76
2023/03/24 07:49:41;;;;;;;7.82;4.60;;;;;;;13.01;nan;-24180.16;5010677;28;20184;-74
2023/03/24 07:52:07;;;;;;;7.85;4.95;;;;;;;12.75;nan;-24172.97;5011214;28;20194;-75
2023/03/24 07:54:33;;;;;;;7.55;4.63;;;;;;;12.89;nan;-24176.91;5011080;28;20214;-74
2023/03/24 07:56:59;;;;;;;10.10;5.80;;;;;;;12.95;nan;-24178.59;5013088;28;20265;-76
2023/03/24 07:59:24;;;;;;;12.55;5.35;;;;;;;12.62;nan;-24169.47;5010822;28;20188;-75
2023/03/24 08:01:50;;;;;;;11.18;6.35;;;;;;;12.51;nan;-24166.22;5005464;28;20180;-75
2023/03/24 08:04:15;;;;;;;11.82;5.97;;;;;;;12.80;nan;-24174.53;5010585;28;20188;-76
2023/03/24 08:06:44;;;;;;;9.38;5.38;;;;;;;12.94;nan;-24178.19;5026710;28;20200;-74
2023/03/24 08:09:11;;;;;;;12.63;6.25;;;;;;;13.16;nan;-24184.50;5011633;28;20200;-76
2023/03/24 08:11:37;;;;;;;11.48;5.78;;;;;;;13.31;nan;-24188.44;5011732;28;20255;-76
2023/03/24 08:14:02;;;;;;;11.20;6.22;;;;;;;13.50;nan;-24193.78;5027188;28;20184;-75
2023/03/24 08:16:28;;;;;;;11.50;5.95;;;;;;;13.41;nan;-24191.25;5012024;28;20176;-77
2023/03/24 08:18:56;;;;;;;12.70;7.13;;;;;;;13.76;nan;-24201.09;5011823;28;20267;-76
2023/03/24 08:21:23;;;;;;;9.48;5.68;;;;;;;14.07;nan;-24209.78;5026909;28;20262;-76
2023/03/24 08:23:48;;;;;;;11.20;6.35;;;;;;;14.00;nan;-24207.81;5011926;28;20176;-75
2023/03/24 08:26:14;;;;;;;10.85;6.13;;;;;;;13.59;nan;-24196.31;5010116;28;20176;-77
2023/03/24 08:28:40;;;;;;;15.15;6.65;;;;;;;14.32;nan;-24216.50;5011875;28;20526;-76
2023/03/24 08:31:06;;;;;;;11.70;6.22;;;;;;;14.40;nan;-24218.75;5011771;28;20168;-77
2023/03/24 08:33:31;;;;;;;15.23;6.88;;;;;;;14.32;nan;-24216.50;5012610;28;20188;-76
2023/03/24 08:35:57;;;;;;;14.45;7.57;;;;;;;14.47;nan;-24220.72;5015207;28;20259;-76
2023/03/24 08:38:29;;;;;;;17.13;7.93;;;;;;;14.63;nan;-24225.22;5015008;28;20303;-76
2023/03/24 08:40:55;;;;;;;10.93;6.20;;;;;;;14.61;nan;-24224.66;5015674;28;20183;-77
2023/03/24 08:43:22;;;;;;;12.57;6.57;;;;;;;14.76;nan;-24228.72;5015578;28;20180;-75
2023/03/24 08:45:47;;;;;;;12.88;7.38;;;;;;;14.85;nan;-24231.38;5015888;28;20168;-76
2023/03/24 08:48:12;;;;;;;14.27;6.20;;;;;;;14.09;nan;-24210.34;5015641;28;20186;-75
2023/03/24 08:50:40;;;;;;;13.65;6.65;;;;;;;14.03;nan;-24208.66;5030278;28;20199;-75
2023/03/24 08:53:07;;;;;;;12.15;6.68;;;;;;;13.94;nan;-24206.13;5014355;28;20215;-78
2023/03/24 08:55:33;;;;;;;13.23;7.07;;;;;;;13.97;nan;-24206.97;5015645;28;20179;-76
2023/03/24 08:57:59;;;;;;;12.23;7.05;;;;;;;14.36;nan;-24217.66;5015783;28;20282;-77
2023/03/24 09:00:24;;;;;;;16.50;7.53;;;;;;;14.35;nan;-24217.50;5013688;28;20187;-75
2023/03/24 09:02:54;;;;;;;12.90;6.88;;;;;;;14.52;nan;-24222.13;5014554;28;20251;-74
2023/03/24 09:05:22;;;;;;;14.18;7.60;;;;;;;14.35;nan;-24217.34;5014249;28;20245;-76
2023/03/24 09:07:48;;;;;;;14.98;7.65;;;;;;;14.70;nan;-24227.03;5014524;28;20168;-75
2023/03/24 09:10:15;;;;;;;10.85;6.57;;;;;;;14.06;nan;-24209.50;5014486;28;20176;-75
2023/03/24 09:12:41;;;;;;;17.73;7.20;;;;;;;14.52;nan;-24222.28;5013416;28;20628;-75
2023/03/24 09:15:08;;;;;;;11.68;6.32;;;;;;;14.87;nan;-24231.94;5014360;28;20172;-74
2023/03/24 09:17:34;;;;;;;11.07;6.85;;;;;;;14.94;nan;-24233.91;5013107;28;20203;-75
2023/03/24 09:20:00;;;;;;;11.13;6.55;;;;;;;15.06;nan;-24237.00;5012919;28;20184;-76
2023/03/24 09:22:25;;;;;;;14.32;6.38;;;;;;;15.45;nan;-24248.06;5012927;28;20278;-75
2023/03/24 09:24:51;;;;;;;11.63;6.38;;;;;;;15.53;nan;-24250.03;5013145;28;20172;-76
2023/03/24 09:27:16;;;;;;;11.60;6.07;;;;;;;15.56;nan;-24251.00;5014141;28;20233;-75
2023/03/24 09:29:42;;;;;;;11.70;6.18;;;;;;;14.99;nan;-24235.31;5014241;28;20176;-76
2023/03/24 09:32:08;;;;;;;11.98;5.88;;;;;;;14.71;nan;-24227.47;5013830;28;20573;-74
2023/03/24 09:34:36;;;;;;;11.13;6.15;;;;;;;15.12;nan;-24238.66;5013810;28;20219;-75
2023/03/24 09:37:01;;;;;;;13.93;6.90;;;;;;;15.15;nan;-24239.50;5014402;28;20192;-76
2023/03/24 09:39:27;;;;;;;10.18;6.20;;;;;;;14.81;nan;-24230.13;5013214;28;20179;-76
2023/03/24 09:41:54;;;;;;;12.35;6.10;;;;;;;14.88;nan;-24232.22;5012737;28;20262;-75
2023/03/24 09:44:49;;;;;;;12.23;6.07;;;;;;;15.44;nan;-24247.63;5013834;28;20287;-77
2023/03/24 09:47:30;;;;;;;10.68;5.78;;;;;;;15.85;nan;-24259.13;5016638;28;20254;-76
2023/03/24 09:50:05;;;;;;;11.00;6.65;;;;;;;15.98;nan;-24262.59;5014035;28;20709;-75
2023/03/24 09:52:38;;;;;;;9.52;5.38;;;;;;;16.02;nan;-24263.59;5014046;28;20207;-75
2023/03/24 09:55:05;;;;;;;11.65;6.18;;;;;;;16.00;nan;-24263.16;5012321;28;20176;-76
2023/03/24 09:57:38;;;;;;;11.20;5.65;;;;;;;15.62;nan;-24252.69;5008219;28;20782;-76
2023/03/24 10:00:22;;;;;;;10.25;5.40;;;;;;;16.13;nan;-24266.81;5005744;28;20176;-75
2023/03/24 10:02:49;;;;;;;7.47;4.75;;;;;;;16.26;nan;-24270.31;5013612;28;20330;-76
2023/03/24 10:05:20;;;;;;;8.93;4.75;;;;;;;16.35;nan;-24272.97;5013578;28;20172;-76
2023/03/24 10:08:21;;;;;;;9.27;5.00;;;;;;;16.13;nan;-24266.66;5013729;28;20202;-75
2023/03/24 10:11:00;;;;;;;8.45;5.18;;;;;;;16.43;nan;-24274.91;5014352;28;20179;-77
2023/03/24 10:13:39;;;;;;;10.38;5.70;;;;;;;16.15;nan;-24267.38;5013636;28;20207;-76
2023/03/24 10:16:23;;;;;;;9.90;5.40;;;;;;;16.59;nan;-24279.41;5028647;28;20206;-76
2023/03/24 10:18:55;;;;;;;6.95;4.75;;;;;;;16.77;nan;-24284.56;5013000;28;20603;-75
2023/03/24 10:21:25;;;;;;;12.20;5.55;;;;;;;16.52;nan;-24277.56;5013618;28;20234;-76
2023/03/24 10:24:01;;;;;;;9.75;6.05;;;;;;;16.42;nan;-24274.63;5013277;28;20180;-75
2023/03/24 10:26:51;;;;;;;11.07;5.88;;;;;;;16.56;nan;-24278.69;5013253;28;20212;-76
2023/03/24 10:29:29;;;;;;;10.55;5.93;;;;;;;15.99;nan;-24262.75;5011064;28;20196;-75
2023/03/24 10:32:15;;;;;;;11.82;5.95;;;;;;;16.26;nan;-24270.31;5012778;28;20624;-75
2023/03/24 10:34:43;;;;;;;9.30;5.53;;;;;;;16.28;nan;-24270.84;5012686;28;20295;-75
2023/03/24 10:37:10;;;;;;;10.88;6.20;;;;;;;16.44;nan;-24275.34;5012606;28;20195;-75
2023/03/24 10:39:36;;;;;;;8.73;5.28;;;;;;;16.57;nan;-24278.81;5027698;28;20176;-76
2023/03/24 10:42:03;;;;;;;13.27;5.32;;;;;;;16.76;nan;-24284.28;5012990;28;20176;-75
2023/03/24 10:44:29;;;;;;;10.98;5.65;;;;;;;16.64;nan;-24280.94;5012756;28;20291;-76
2023/03/24 10:46:58;;;;;;;10.60;5.30;;;;;;;16.42;nan;-24274.63;5011352;28;20640;-76
2023/03/24 10:49:24;;;;;;;10.88;5.70;;;;;;;16.77;nan;-24284.41;5011169;28;20274;-77
2023/03/24 10:51:55;;;;;;;10.07;5.57;;;;;;;16.60;nan;-24279.81;5012238;28;20830;-76
2023/03/24 10:54:23;;;;;;;9.02;5.15;;;;;;;16.90;nan;-24287.91;5011686;28;20183;-76
2023/03/24 10:56:59;;;;;;;9.13;4.57;;;;;;;16.42;nan;-24274.63;5027380;28;20665;-76
2023/03/24 10:59:27;;;;;;;8.80;5.20;;;;;;;17.15;nan;-24294.91;5013399;28;20183;-75
2023/03/24 11:02:08;;;;;;;7.88;4.72;;;;;;;16.91;nan;-24288.34;5012275;28;20172;-75
2023/03/24 11:04:38;;;;;;;9.52;5.32;;;;;;;17.13;nan;-24294.47;5012074;28;20188;-75
2023/03/24 11:07:20;;;;;;;8.80;4.85;;;;;;;17.17;nan;-24295.59;5011266;28;20191;-76
2023/03/24 11:09:49;;;;;;;11.27;4.90;;;;;;;17.22;nan;-24296.84;5012377;28;20745;-75
2023/03/24 11:12:29;;;;;;;8.85;4.50;;;;;;;17.47;nan;-24303.81;5012203;28;20175;-75
2023/03/24 11:15:16;;;;;;;9.43;4.70;;;;;;;17.74;nan;-24311.09;5010993;28;20557;-76
2023/03/24 11:17:43;;;;;;;10.25;5.18;;;;;;;17.48;nan;-24304.09;5012278;28;20203;-76
2023/03/24 11:20:40;;;;;;;7.85;4.50;;;;;;;17.03;nan;-24291.53;5012249;28;20286;-76
2023/03/24 11:23:17;;;;;;;10.48;5.18;;;;;;;17.62;nan;-24308.00;5017317;28;20348;-76
2023/03/24 11:25:49;;;;;;;9.13;4.90;;;;;;;17.83;nan;-24313.59;5011501;28;20179;-76
2023/03/24 11:28:17;;;;;;;9.35;5.05;;;;;;;17.86;nan;-24314.44;5011736;28;20234;-74
2023/03/24 11:30:48;;;;;;;9.15;3.95;;;;;;;17.84;nan;-24313.88;5011460;28;20631;-75
2023/03/24 11:33:24;;;;;;;8.77;4.45;;;;;;;18.08;nan;-24320.56;5005530;28;20555;-74
2023/03/24 11:35:50;;;;;;;7.57;4.28;;;;;;;18.02;nan;-24319.03;5011230;28;20191;-76
2023/03/24 11:38:18;;;;;;;7.85;4.50;;;;;;;18.33;nan;-24327.53;5008081;28;20200;-76
2023/03/24 11:41:04;;;;;;;11.38;5.00;;;;;;;17.99;nan;-24318.19;5000047;28;20184;-75
2023/03/24 11:43:30;;;;;;;8.18;4.45;;;;;;;17.42;nan;-24302.28;5011299;28;20617;-76
2023/03/24 11:46:08;;;;;;;7.22;4.25;;;;;;;17.67;nan;-24309.41;5011234;28;20212;-76
2023/03/24 11:48:53;;;;;;;7.78;4.50;;;;;;;17.79;nan;-24312.47;5011497;28;20172;-75
2023/03/24 11:51:33;;;;;;;10.48;4.93;;;;;;;18.09;nan;-24320.84;5012094;28;20179;-76
2023/03/24 11:54:02;;;;;;;6.68;4.32;;;;;;;18.24;nan;-24325.03;5011583;28;20180;-74
2023/03/24 11:56:51;;;;;;;6.82;4.25;;;;;;;17.95;nan;-24316.94;5011464;28;20188;-75
2023/03/24 11:59:30;;;;;;;7.88;4.35;;;;;;;18.00;nan;-24318.34;5011936;28;20228;-74